sensor_id;sensor_type;location;lat;lon;timestamp;pressure;altitude;pressure_sealevel;temperature;humidity
46379;BME280;32084;42.254;22.744;2023-09-19T00:01:42;95568.88;;;14.94;99.83
46379;BME280;32084;42.254;22.744;2023-09-19T00:04:14;95560.63;;;15.18;98.79
46379;BME280;32084;42.254;22.744;2023-09-19T00:06:40;95550.44;;;15.29;98.82
46379;BME280;32084;42.254;22.744;2023-09-19T00:09:07;95566.50;;;15.22;99.21
46379;BME280;32084;42.254;22.744;2023-09-19T00:11:36;95568.41;;;15.13;99.76
46379;BME280;32084;42.254;22.744;2023-09-19T00:14:03;95570.25;;;15.13;100.00
46379;BME280;32084;42.254;22.744;2023-09-19T00:16:30;95573.53;;;15.00;100.00
46379;BME280;32084;42.254;22.744;2023-09-19T00:18:58;95570.09;;;14.83;99.85
46379;BME280;32084;42.254;22.744;2023-09-19T00:21:24;95560.53;;;14.80;100.00
46379;BME280;32084;42.254;22.744;2023-09-19T00:23:50;95566.44;;;14.76;100.00
46379;BME280;32084;42.254;22.744;2023-09-19T00:26:17;95571.81;;;14.76;100.00
46379;BME280;32084;42.254;22.744;2023-09-19T00:28:44;95562.41;;;14.80;100.00
46379;BME280;32084;42.254;22.744;2023-09-19T00:31:10;95568.00;;;14.70;100.00
46379;BME280;32084;42.254;22.744;2023-09-19T00:33:36;95566.19;;;14.54;100.00
46379;BME280;32084;42.254;22.744;2023-09-19T00:36:02;95567.91;;;14.47;100.00
46379;BME280;32084;42.254;22.744;2023-09-19T00:38:31;95569.06;;;14.61;100.00
46379;BME280;32084;42.254;22.744;2023-09-19T00:40:57;95566.16;;;14.71;100.00
46379;BME280;32084;42.254;22.744;2023-09-19T00:43:25;95570.50;;;14.72;100.00
46379;BME280;32084;42.254;22.744;2023-09-19T00:45:54;95559.94;;;14.70;100.00
46379;BME280;32084;42.254;22.744;2023-09-19T00:48:20;95558.28;;;14.61;100.00
46379;BME280;32084;42.254;22.744;2023-09-19T00:50:47;95558.94;;;14.55;100.00
46379;BME280;32084;42.254;22.744;2023-09-19T00:53:14;95559.47;;;14.58;100.00
46379;BME280;32084;42.254;22.744;2023-09-19T00:55:41;95553.91;;;14.60;100.00
46379;BME280;32084;42.254;22.744;2023-09-19T00:58:08;95554.41;;;14.63;100.00
46379;BME280;32084;42.254;22.744;2023-09-19T01:00:36;95555.56;;;14.69;100.00
46379;BME280;32084;42.254;22.744;2023-09-19T01:03:02;95553.75;;;14.61;100.00
46379;BME280;32084;42.254;22.744;2023-09-19T01:05:29;95550.75;;;14.48;100.00
46379;BME280;32084;42.254;22.744;2023-09-19T01:07:57;95547.09;;;14.41;100.00
46379;BME280;32084;42.254;22.744;2023-09-19T01:10:24;95544.28;;;14.34;100.00
46379;BME280;32084;42.254;22.744;2023-09-19T01:18:01;95547.50;;;14.13;100.00
46379;BME280;32084;42.254;22.744;2023-09-19T01:25:50;95545.81;;;14.29;100.00
46379;BME280;32084;42.254;22.744;2023-09-19T01:30:56;95553.28;;;14.50;100.00
46379;BME280;32084;42.254;22.744;2023-09-19T01:33:23;95545.69;;;14.53;100.00
46379;BME280;32084;42.254;22.744;2023-09-19T01:35:49;95546.97;;;14.34;100.00
46379;BME280;32084;42.254;22.744;2023-09-19T01:38:16;95553.06;;;14.20;100.00
46379;BME280;32084;42.254;22.744;2023-09-19T01:40:43;95557.56;;;14.28;100.00
46379;BME280;32084;42.254;22.744;2023-09-19T01:43:31;95559.91;;;14.31;100.00
46379;BME280;32084;42.254;22.744;2023-09-19T01:46:03;95560.03;;;14.37;100.00
46379;BME280;32084;42.254;22.744;2023-09-19T01:49:07;95543.78;;;14.31;100.00
46379;BME280;32084;42.254;22.744;2023-09-19T01:54:11;95550.66;;;14.33;100.00
46379;BME280;32084;42.254;22.744;2023-09-19T01:56:40;95551.56;;;14.17;100.00
46379;BME280;32084;42.254;22.744;2023-09-19T01:59:13;95552.44;;;14.01;100.00
46379;BME280;32084;42.254;22.744;2023-09-19T02:01:39;95553.59;;;14.15;100.00
46379;BME280;32084;42.254;22.744;2023-09-19T02:04:10;95557.91;;;14.24;100.00
46379;BME280;32084;42.254;22.744;2023-09-19T02:06:39;95553.00;;;14.28;100.00
46379;BME280;32084;42.254;22.744;2023-09-19T02:09:05;95547.13;;;14.24;100.00
46379;BME280;32084;42.254;22.744;2023-09-19T02:11:31;95533.41;;;14.19;100.00
46379;BME280;32084;42.254;22.744;2023-09-19T02:13:57;95537.06;;;14.27;100.00
46379;BME280;32084;42.254;22.744;2023-09-19T02:16:25;95526.13;;;14.28;100.00
46379;BME280;32084;42.254;22.744;2023-09-19T02:18:51;95527.41;;;14.40;100.00
46379;BME280;32084;42.254;22.744;2023-09-19T02:21:17;95536.28;;;14.57;100.00
46379;BME280;32084;42.254;22.744;2023-09-19T02:23:44;95531.53;;;14.51;100.00
46379;BME280;32084;42.254;22.744;2023-09-19T02:26:10;95528.41;;;14.39;100.00
46379;BME280;32084;42.254;22.744;2023-09-19T02:28:37;95540.38;;;14.37;100.00
46379;BME280;32084;42.254;22.744;2023-09-19T02:31:03;95528.25;;;14.41;100.00
46379;BME280;32084;42.254;22.744;2023-09-19T02:33:33;95535.59;;;14.47;100.00
46379;BME280;32084;42.254;22.744;2023-09-19T02:35:59;95537.06;;;14.27;100.00
46379;BME280;32084;42.254;22.744;2023-09-19T02:38:26;95530.31;;;14.31;100.00
46379;BME280;32084;42.254;22.744;2023-09-19T02:40:52;95528.03;;;14.19;100.00
46379;BME280;32084;42.254;22.744;2023-09-19T02:43:18;95536.91;;;14.20;100.00
46379;BME280;32084;42.254;22.744;2023-09-19T02:45:45;95536.59;;;14.23;100.00
46379;BME280;32084;42.254;22.744;2023-09-19T02:48:12;95545.47;;;14.23;100.00
46379;BME280;32084;42.254;22.744;2023-09-19T02:50:38;95528.91;;;14.03;99.37
46379;BME280;32084;42.254;22.744;2023-09-19T02:53:06;95530.25;;;13.99;100.00
46379;BME280;32084;42.254;22.744;2023-09-19T02:55:32;95527.03;;;14.12;100.00
46379;BME280;32084;42.254;22.744;2023-09-19T02:57:58;95521.13;;;14.17;99.85
46379;BME280;32084;42.254;22.744;2023-09-19T03:00:24;95519.97;;;14.11;100.00
46379;BME280;32084;42.254;22.744;2023-09-19T03:02:52;95517.94;;;14.13;100.00
46379;BME280;32084;42.254;22.744;2023-09-19T03:05:18;95517.09;;;14.13;100.00
46379;BME280;32084;42.254;22.744;2023-09-19T03:07:45;95518.78;;;14.14;100.00
46379;BME280;32084;42.254;22.744;2023-09-19T03:10:17;95515.34;;;13.89;99.90
46379;BME280;32084;42.254;22.744;2023-09-19T03:12:44;95518.22;;;13.79;100.00
46379;BME280;32084;42.254;22.744;2023-09-19T03:15:10;95512.00;;;13.78;100.00
46379;BME280;32084;42.254;22.744;2023-09-19T03:17:36;95516.88;;;13.83;100.00
46379;BME280;32084;42.254;22.744;2023-09-19T03:20:02;95519.03;;;13.88;100.00
46379;BME280;32084;42.254;22.744;2023-09-19T03:22:30;95518.03;;;13.89;100.00
46379;BME280;32084;42.254;22.744;2023-09-19T03:24:56;95525.09;;;13.90;100.00
46379;BME280;32084;42.254;22.744;2023-09-19T03:27:22;95526.09;;;13.89;100.00
46379;BME280;32084;42.254;22.744;2023-09-19T03:29:48;95524.25;;;13.89;99.77
46379;BME280;32084;42.254;22.744;2023-09-19T03:32:14;95532.84;;;13.76;100.00
46379;BME280;32084;42.254;22.744;2023-09-19T03:34:41;95526.31;;;13.71;99.47
46379;BME280;32084;42.254;22.744;2023-09-19T03:37:09;95524.84;;;13.52;100.00
46379;BME280;32084;42.254;22.744;2023-09-19T03:39:35;95523.16;;;13.51;100.00
46379;BME280;32084;42.254;22.744;2023-09-19T03:42:01;95524.34;;;13.48;100.00
46379;BME280;32084;42.254;22.744;2023-09-19T03:44:30;95523.81;;;13.61;100.00
46379;BME280;32084;42.254;22.744;2023-09-19T03:46:56;95530.19;;;13.68;100.00
46379;BME280;32084;42.254;22.744;2023-09-19T03:49:22;95525.63;;;13.85;100.00
46379;BME280;32084;42.254;22.744;2023-09-19T03:51:48;95525.75;;;13.92;99.04
46379;BME280;32084;42.254;22.744;2023-09-19T03:54:14;95522.72;;;13.86;98.97
46379;BME280;32084;42.254;22.744;2023-09-19T03:56:40;95528.47;;;13.83;99.52
46379;BME280;32084;42.254;22.744;2023-09-19T03:59:06;95525.94;;;13.82;99.34
46379;BME280;32084;42.254;22.744;2023-09-19T04:01:34;95524.16;;;13.66;99.26
46379;BME280;32084;42.254;22.744;2023-09-19T04:04:00;95525.66;;;13.52;99.68
46379;BME280;32084;42.254;22.744;2023-09-19T04:06:34;95519.28;;;13.53;100.00
46379;BME280;32084;42.254;22.744;2023-09-19T04:09:01;95524.16;;;13.58;99.38
46379;BME280;32084;42.254;22.744;2023-09-19T04:11:27;95532.53;;;13.63;98.67
46379;BME280;32084;42.254;22.744;2023-09-19T04:13:53;95529.50;;;13.58;99.04
46379;BME280;32084;42.254;22.744;2023-09-19T04:16:19;95527.88;;;13.40;99.18
46379;BME280;32084;42.254;22.744;2023-09-19T04:18:45;95541.09;;;13.25;100.00
46379;BME280;32084;42.254;22.744;2023-09-19T04:21:12;95525.66;;;13.27;100.00
46379;BME280;32084;42.254;22.744;2023-09-19T04:23:38;95538.94;;;13.54;100.00
46379;BME280;32084;42.254;22.744;2023-09-19T04:26:03;95537.06;;;13.71;100.00
46379;BME280;32084;42.254;22.744;2023-09-19T04:28:31;95536.91;;;13.72;99.76
46379;BME280;32084;42.254;22.744;2023-09-19T04:30:57;95537.56;;;13.74;99.40
46379;BME280;32084;42.254;22.744;2023-09-19T04:33:24;95537.56;;;13.74;100.00
46379;BME280;32084;42.254;22.744;2023-09-19T04:35:50;95537.91;;;13.79;99.82
46379;BME280;32084;42.254;22.744;2023-09-19T04:38:17;95539.38;;;13.82;100.00
46379;BME280;32084;42.254;22.744;2023-09-19T04:40:43;95548.13;;;13.84;100.00
46379;BME280;32084;42.254;22.744;2023-09-19T04:43:09;95542.75;;;13.84;100.00
46379;BME280;32084;42.254;22.744;2023-09-19T04:45:35;95545.91;;;13.96;100.00
46379;BME280;32084;42.254;22.744;2023-09-19T04:48:04;95540.31;;;14.05;100.00
46379;BME280;32084;42.254;22.744;2023-09-19T04:50:30;95544.81;;;14.21;100.00
46379;BME280;32084;42.254;22.744;2023-09-19T04:52:56;95544.56;;;14.39;100.00
46379;BME280;32084;42.254;22.744;2023-09-19T04:55:22;95541.81;;;14.56;100.00
46379;BME280;32084;42.254;22.744;2023-09-19T04:57:51;95548.03;;;14.64;100.00
46379;BME280;32084;42.254;22.744;2023-09-19T05:00:20;95541.47;;;14.51;100.00
46379;BME280;32084;42.254;22.744;2023-09-19T05:02:52;95539.63;;;14.59;100.00
46379;BME280;32084;42.254;22.744;2023-09-19T05:05:20;95531.25;;;14.86;100.00
46379;BME280;32084;42.254;22.744;2023-09-19T05:07:48;95528.66;;;14.92;100.00
46379;BME280;32084;42.254;22.744;2023-09-19T05:10:14;95532.13;;;15.01;100.00
46379;BME280;32084;42.254;22.744;2023-09-19T05:12:40;95526.84;;;15.08;100.00
46379;BME280;32084;42.254;22.744;2023-09-19T05:15:07;95533.88;;;15.17;100.00
46379;BME280;32084;42.254;22.744;2023-09-19T05:17:33;95533.63;;;15.27;100.00
46379;BME280;32084;42.254;22.744;2023-09-19T05:20:00;95530.00;;;15.34;100.00
46379;BME280;32084;42.254;22.744;2023-09-19T05:22:31;95530.31;;;15.39;100.00
46379;BME280;32084;42.254;22.744;2023-09-19T05:24:58;95528.13;;;15.58;100.00
46379;BME280;32084;42.254;22.744;2023-09-19T05:27:24;95522.78;;;15.73;100.00
46379;BME280;32084;42.254;22.744;2023-09-19T05:29:50;95524.31;;;15.90;100.00
46379;BME280;32084;42.254;22.744;2023-09-19T05:32:19;95524.19;;;15.98;100.00
46379;BME280;32084;42.254;22.744;2023-09-19T05:34:45;95519.94;;;16.04;100.00
46379;BME280;32084;42.254;22.744;2023-09-19T05:37:12;95519.56;;;16.22;100.00
46379;BME280;32084;42.254;22.744;2023-09-19T05:39:39;95524.66;;;16.32;99.87
46379;BME280;32084;42.254;22.744;2023-09-19T05:42:05;95526.50;;;16.31;99.39
46379;BME280;32084;42.254;22.744;2023-09-19T05:44:31;95528.66;;;16.36;98.82
46379;BME280;32084;42.254;22.744;2023-09-19T05:46:58;95543.81;;;16.37;99.80
46379;BME280;32084;42.254;22.744;2023-09-19T05:49:24;95536.94;;;16.19;100.00
46379;BME280;32084;42.254;22.744;2023-09-19T05:51:50;95530.63;;;15.97;100.00
46379;BME280;32084;42.254;22.744;2023-09-19T05:54:19;95532.75;;;16.02;100.00
46379;BME280;32084;42.254;22.744;2023-09-19T05:56:45;95529.50;;;15.92;100.00
46379;BME280;32084;42.254;22.744;2023-09-19T05:59:13;95534.63;;;15.87;100.00
46379;BME280;32084;42.254;22.744;2023-09-19T06:01:44;95531.16;;;15.93;100.00
46379;BME280;32084;42.254;22.744;2023-09-19T06:04:10;95538.06;;;16.10;100.00
46379;BME280;32084;42.254;22.744;2023-09-19T06:06:36;95539.63;;;16.19;100.00
46379;BME280;32084;42.254;22.744;2023-09-19T06:09:04;95534.16;;;16.28;100.00
46379;BME280;32084;42.254;22.744;2023-09-19T06:11:34;95536.59;;;16.23;100.00
46379;BME280;32084;42.254;22.744;2023-09-19T06:14:01;95538.16;;;16.17;100.00
46379;BME280;32084;42.254;22.744;2023-09-19T06:16:28;95531.66;;;16.41;100.00
46379;BME280;32084;42.254;22.744;2023-09-19T06:18:55;95525.06;;;16.65;99.51
46379;BME280;32084;42.254;22.744;2023-09-19T06:21:22;95526.44;;;16.76;98.33
46379;BME280;32084;42.254;22.744;2023-09-19T06:23:48;95524.75;;;16.75;99.07
46379;BME280;32084;42.254;22.744;2023-09-19T06:26:14;95527.50;;;16.60;98.10
46379;BME280;32084;42.254;22.744;2023-09-19T06:28:40;95520.63;;;16.57;99.08
46379;BME280;32084;42.254;22.744;2023-09-19T06:31:08;95517.44;;;16.69;98.30
46379;BME280;32084;42.254;22.744;2023-09-19T06:33:38;95519.75;;;16.72;98.64
46379;BME280;32084;42.254;22.744;2023-09-19T06:36:08;95521.53;;;16.65;99.11
46379;BME280;32084;42.254;22.744;2023-09-19T06:38:34;95527.69;;;16.58;98.46
46379;BME280;32084;42.254;22.744;2023-09-19T06:41:02;95529.72;;;16.71;97.75
46379;BME280;32084;42.254;22.744;2023-09-19T06:43:32;95532.41;;;16.86;97.84
46379;BME280;32084;42.254;22.744;2023-09-19T06:46:00;95525.44;;;16.77;97.24
46379;BME280;32084;42.254;22.744;2023-09-19T06:48:26;95530.25;;;16.82;97.66
46379;BME280;32084;42.254;22.744;2023-09-19T06:50:55;95525.03;;;16.95;97.20
46379;BME280;32084;42.254;22.744;2023-09-19T06:53:22;95529.78;;;17.14;98.07
46379;BME280;32084;42.254;22.744;2023-09-19T06:55:51;95529.09;;;17.27;96.21
46379;BME280;32084;42.254;22.744;2023-09-19T06:58:17;95523.16;;;17.39;96.13
46379;BME280;32084;42.254;22.744;2023-09-19T07:00:43;95526.75;;;17.24;96.66
46379;BME280;32084;42.254;22.744;2023-09-19T07:03:10;95530.63;;;17.36;97.34
46379;BME280;32084;42.254;22.744;2023-09-19T07:05:37;95525.06;;;17.45;95.79
46379;BME280;32084;42.254;22.744;2023-09-19T07:08:05;95533.44;;;17.50;97.32
46379;BME280;32084;42.254;22.744;2023-09-19T07:10:38;95527.41;;;17.48;96.61
46379;BME280;32084;42.254;22.744;2023-09-19T07:13:06;95525.78;;;17.53;97.66
46379;BME280;32084;42.254;22.744;2023-09-19T07:15:36;95526.69;;;17.61;96.37
46379;BME280;32084;42.254;22.744;2023-09-19T07:18:05;95523.38;;;17.65;95.36
46379;BME280;32084;42.254;22.744;2023-09-19T07:20:31;95522.34;;;17.66;95.80
46379;BME280;32084;42.254;22.744;2023-09-19T07:22:58;95523.84;;;17.75;96.79
46379;BME280;32084;42.254;22.744;2023-09-19T07:25:27;95524.84;;;17.89;96.48
46379;BME280;32084;42.254;22.744;2023-09-19T07:27:57;95531.88;;;18.12;95.04
46379;BME280;32084;42.254;22.744;2023-09-19T07:30:25;95536.34;;;18.33;92.58
46379;BME280;32084;42.254;22.744;2023-09-19T07:32:52;95536.94;;;18.28;93.69
46379;BME280;32084;42.254;22.744;2023-09-19T07:35:18;95534.03;;;18.30;93.88
46379;BME280;32084;42.254;22.744;2023-09-19T07:37:47;95536.97;;;18.35;93.91
46379;BME280;32084;42.254;22.744;2023-09-19T07:40:18;95534.34;;;18.48;92.43
46379;BME280;32084;42.254;22.744;2023-09-19T07:42:44;95533.72;;;18.46;94.21
46379;BME280;32084;42.254;22.744;2023-09-19T07:45:12;95526.88;;;18.57;91.97
46379;BME280;32084;42.254;22.744;2023-09-19T07:47:46;95527.88;;;18.49;93.68
46379;BME280;32084;42.254;22.744;2023-09-19T07:50:13;95538.31;;;18.52;93.77
46379;BME280;32084;42.254;22.744;2023-09-19T07:52:39;95535.09;;;18.77;92.14
46379;BME280;32084;42.254;22.744;2023-09-19T07:55:06;95525.78;;;18.93;91.27
46379;BME280;32084;42.254;22.744;2023-09-19T07:57:36;95527.06;;;19.04;91.32
46379;BME280;32084;42.254;22.744;2023-09-19T08:00:03;95531.25;;;19.20;89.54
46379;BME280;32084;42.254;22.744;2023-09-19T08:02:36;95528.81;;;19.31;90.58
46379;BME280;32084;42.254;22.744;2023-09-19T08:05:04;95522.97;;;19.61;87.62
46379;BME280;32084;42.254;22.744;2023-09-19T08:07:39;95531.34;;;19.93;87.87
46379;BME280;32084;42.254;22.744;2023-09-19T08:10:05;95536.09;;;20.24;85.24
46379;BME280;32084;42.254;22.744;2023-09-19T08:12:45;95528.28;;;20.61;81.02
46379;BME280;32084;42.254;22.744;2023-09-19T08:15:16;95527.22;;;20.56;79.13
46379;BME280;32084;42.254;22.744;2023-09-19T08:17:42;95536.84;;;20.65;82.76
46379;BME280;32084;42.254;22.744;2023-09-19T08:20:09;95535.31;;;20.82;80.20
46379;BME280;32084;42.254;22.744;2023-09-19T08:22:48;95532.16;;;20.85;80.52
46379;BME280;32084;42.254;22.744;2023-09-19T08:25:18;95528.63;;;20.85;81.11
46379;BME280;32084;42.254;22.744;2023-09-19T08:27:44;95525.09;;;20.71;81.03
46379;BME280;32084;42.254;22.744;2023-09-19T08:30:15;95524.66;;;20.81;81.75
46379;BME280;32084;42.254;22.744;2023-09-19T08:32:41;95514.63;;;20.81;80.45
46379;BME280;32084;42.254;22.744;2023-09-19T08:35:08;95515.19;;;20.97;79.74
46379;BME280;32084;42.254;22.744;2023-09-19T08:37:35;95512.31;;;21.23;76.16
46379;BME280;32084;42.254;22.744;2023-09-19T08:40:01;95508.81;;;21.41;77.11
46379;BME280;32084;42.254;22.744;2023-09-19T08:42:27;95516.69;;;21.56;75.33
46379;BME280;32084;42.254;22.744;2023-09-19T08:44:54;95492.91;;;21.52;75.02
46379;BME280;32084;42.254;22.744;2023-09-19T08:47:24;95505.94;;;21.36;75.72
46379;BME280;32084;42.254;22.744;2023-09-19T08:50:00;95495.59;;;21.20;75.72
46379;BME280;32084;42.254;22.744;2023-09-19T08:52:32;95501.44;;;21.23;77.96
46379;BME280;32084;42.254;22.744;2023-09-19T08:55:02;95497.72;;;21.11;73.87
46379;BME280;32084;42.254;22.744;2023-09-19T08:57:36;95503.97;;;21.18;76.54
46379;BME280;32084;42.254;22.744;2023-09-19T09:00:05;95502.56;;;21.41;73.86
46379;BME280;32084;42.254;22.744;2023-09-19T09:02:37;95497.84;;;21.61;75.38
46379;BME280;32084;42.254;22.744;2023-09-19T09:05:06;95492.75;;;21.90;73.52
46379;BME280;32084;42.254;22.744;2023-09-19T09:07:32;95484.47;;;22.03;73.73
46379;BME280;32084;42.254;22.744;2023-09-19T09:10:02;95481.78;;;22.22;73.63
46379;BME280;32084;42.254;22.744;2023-09-19T09:12:28;95480.34;;;22.38;69.44
46379;BME280;32084;42.254;22.744;2023-09-19T09:14:55;95475.06;;;22.43;70.05
46379;BME280;32084;42.254;22.744;2023-09-19T09:17:22;95474.31;;;22.54;67.74
46379;BME280;32084;42.254;22.744;2023-09-19T09:19:49;95479.16;;;22.52;69.82
46379;BME280;32084;42.254;22.744;2023-09-19T09:22:15;95473.28;;;22.12;68.78
46379;BME280;32084;42.254;22.744;2023-09-19T09:24:58;95468.75;;;22.06;70.70
46379;BME280;32084;42.254;22.744;2023-09-19T09:27:27;95457.13;;;22.35;69.38
46379;BME280;32084;42.254;22.744;2023-09-19T09:29:53;95464.25;;;22.36;68.88
46379;BME280;32084;42.254;22.744;2023-09-19T09:35:07;95458.56;;;22.38;71.90
46379;BME280;32084;42.254;22.744;2023-09-19T09:37:35;95461.66;;;22.41;69.33
46379;BME280;32084;42.254;22.744;2023-09-19T09:40:04;95463.78;;;22.58;69.52
46379;BME280;32084;42.254;22.744;2023-09-19T09:42:50;95445.69;;;22.94;69.04
46379;BME280;32084;42.254;22.744;2023-09-19T09:45:24;95446.09;;;23.28;67.70
46379;BME280;32084;42.254;22.744;2023-09-19T09:47:59;95451.28;;;23.29;66.58
46379;BME280;32084;42.254;22.744;2023-09-19T09:50:30;95440.97;;;23.31;67.17
46379;BME280;32084;42.254;22.744;2023-09-19T09:53:34;95435.41;;;23.26;68.91
46379;BME280;32084;42.254;22.744;2023-09-19T09:56:08;95433.50;;;23.27;68.58
46379;BME280;32084;42.254;22.744;2023-09-19T09:58:49;95427.78;;;23.16;65.77
46379;BME280;32084;42.254;22.744;2023-09-19T10:01:18;95433.03;;;23.30;69.01
46379;BME280;32084;42.254;22.744;2023-09-19T10:03:44;95422.59;;;23.27;68.25
46379;BME280;32084;42.254;22.744;2023-09-19T10:06:14;95423.31;;;23.34;69.21
46379;BME280;32084;42.254;22.744;2023-09-19T10:11:46;95419.56;;;23.05;69.35
46379;BME280;32084;42.254;22.744;2023-09-19T10:14:16;95418.28;;;23.07;70.20
46379;BME280;32084;42.254;22.744;2023-09-19T10:16:46;95421.66;;;23.03;68.56
46379;BME280;32084;42.254;22.744;2023-09-19T10:19:19;95411.09;;;22.94;70.34
46379;BME280;32084;42.254;22.744;2023-09-19T10:21:48;95408.72;;;22.98;69.94
46379;BME280;32084;42.254;22.744;2023-09-19T10:24:15;95406.38;;;23.02;66.41
46379;BME280;32084;42.254;22.744;2023-09-19T10:26:43;95396.16;;;22.97;68.37
46379;BME280;32084;42.254;22.744;2023-09-19T10:29:12;95390.59;;;22.92;67.04
46379;BME280;32084;42.254;22.744;2023-09-19T10:31:39;95395.69;;;23.00;67.43
46379;BME280;32084;42.254;22.744;2023-09-19T10:34:07;95400.22;;;23.06;67.59
46379;BME280;32084;42.254;22.744;2023-09-19T10:36:35;95394.31;;;23.09;67.13
46379;BME280;32084;42.254;22.744;2023-09-19T10:39:02;95393.03;;;23.12;66.94
46379;BME280;32084;42.254;22.744;2023-09-19T10:41:32;95399.19;;;23.19;66.85
46379;BME280;32084;42.254;22.744;2023-09-19T10:44:03;95397.53;;;23.18;66.49
46379;BME280;32084;42.254;22.744;2023-09-19T10:46:32;95399.19;;;23.19;68.38
46379;BME280;32084;42.254;22.744;2023-09-19T10:48:59;95386.63;;;23.18;69.91
46379;BME280;32084;42.254;22.744;2023-09-19T10:51:26;95385.34;;;23.21;70.22
46379;BME280;32084;42.254;22.744;2023-09-19T10:54:13;95388.88;;;23.21;69.47
46379;BME280;32084;42.254;22.744;2023-09-19T10:56:46;95381.41;;;23.16;68.94
46379;BME280;32084;42.254;22.744;2023-09-19T10:59:15;95380.94;;;23.31;68.34
46379;BME280;32084;42.254;22.744;2023-09-19T11:01:53;95379.44;;;23.47;68.38
46379;BME280;32084;42.254;22.744;2023-09-19T11:04:23;95382.66;;;23.68;66.46
46379;BME280;32084;42.254;22.744;2023-09-19T11:07:00;95371.22;;;23.71;63.65
46379;BME280;32084;42.254;22.744;2023-09-19T11:09:42;95362.00;;;23.84;64.30
46379;BME280;32084;42.254;22.744;2023-09-19T11:12:08;95351.78;;;23.91;68.04
46379;BME280;32084;42.254;22.744;2023-09-19T11:14:38;95347.38;;;23.78;64.52
46379;BME280;32084;42.254;22.744;2023-09-19T11:22:19;95337.50;;;23.77;67.49
46379;BME280;32084;42.254;22.744;2023-09-19T11:24:48;95333.28;;;23.81;68.32
46379;BME280;32084;42.254;22.744;2023-09-19T11:27:16;95339.81;;;23.80;67.75
46379;BME280;32084;42.254;22.744;2023-09-19T11:29:44;95329.81;;;23.74;65.54
46379;BME280;32084;42.254;22.744;2023-09-19T11:32:10;95328.06;;;23.80;68.57
46379;BME280;32084;42.254;22.744;2023-09-19T11:40:05;95319.03;;;23.67;67.13
46379;BME280;32084;42.254;22.744;2023-09-19T11:42:43;95322.22;;;23.88;67.39
46379;BME280;32084;42.254;22.744;2023-09-19T11:48:00;95315.19;;;24.04;67.12
46379;BME280;32084;42.254;22.744;2023-09-19T11:50:27;95309.97;;;24.02;66.88
46379;BME280;32084;42.254;22.744;2023-09-19T11:52:53;95296.56;;;24.01;68.46
46379;BME280;32084;42.254;22.744;2023-09-19T11:55:21;95300.03;;;23.96;69.44
46379;BME280;32084;42.254;22.744;2023-09-19T11:57:48;95298.34;;;23.95;67.29
46379;BME280;32084;42.254;22.744;2023-09-19T12:00:17;95296.13;;;23.80;67.11
46379;BME280;32084;42.254;22.744;2023-09-19T12:02:45;95285.75;;;23.94;66.54
46379;BME280;32084;42.254;22.744;2023-09-19T12:05:12;95278.72;;;24.10;68.67
46379;BME280;32084;42.254;22.744;2023-09-19T12:07:44;95271.31;;;24.22;69.93
46379;BME280;32084;42.254;22.744;2023-09-19T12:10:14;95265.69;;;24.29;68.52
46379;BME280;32084;42.254;22.744;2023-09-19T12:12:48;95265.50;;;24.47;69.59
46379;BME280;32084;42.254;22.744;2023-09-19T12:15:17;95263.44;;;24.54;68.02
46379;BME280;32084;42.254;22.744;2023-09-19T12:17:48;95261.56;;;24.55;66.56
46379;BME280;32084;42.254;22.744;2023-09-19T12:20:14;95258.00;;;24.54;67.29
46379;BME280;32084;42.254;22.744;2023-09-19T12:22:46;95262.88;;;24.52;68.10
46379;BME280;32084;42.254;22.744;2023-09-19T12:25:12;95256.44;;;24.47;69.29
46379;BME280;32084;42.254;22.744;2023-09-19T12:27:49;95255.75;;;24.51;63.27
46379;BME280;32084;42.254;22.744;2023-09-19T12:30:26;95242.31;;;24.50;66.54
46379;BME280;32084;42.254;22.744;2023-09-19T12:32:53;95247.78;;;24.50;65.75
46379;BME280;32084;42.254;22.744;2023-09-19T12:35:29;95246.97;;;24.49;67.00
46379;BME280;32084;42.254;22.744;2023-09-19T12:38:04;95235.97;;;24.61;68.37
46379;BME280;32084;42.254;22.744;2023-09-19T12:40:32;95238.06;;;24.71;64.21
46379;BME280;32084;42.254;22.744;2023-09-19T12:42:59;95245.84;;;24.79;63.02
46379;BME280;32084;42.254;22.744;2023-09-19T12:45:29;95233.41;;;24.88;63.03
46379;BME280;32084;42.254;22.744;2023-09-19T12:53:37;95232.50;;;25.00;65.53
46379;BME280;32084;42.254;22.744;2023-09-19T12:56:06;95231.75;;;24.87;66.58
46379;BME280;32084;42.254;22.744;2023-09-19T12:58:35;95228.03;;;24.77;68.75
46379;BME280;32084;42.254;22.744;2023-09-19T13:01:14;95220.88;;;24.75;68.24
46379;BME280;32084;42.254;22.744;2023-09-19T13:03:40;95223.13;;;24.79;65.34
46379;BME280;32084;42.254;22.744;2023-09-19T13:06:06;95216.59;;;24.80;68.06
46379;BME280;32084;42.254;22.744;2023-09-19T13:08:34;95215.28;;;24.82;68.49
46379;BME280;32084;42.254;22.744;2023-09-19T13:13:33;95208.31;;;24.74;66.36
46379;BME280;32084;42.254;22.744;2023-09-19T13:16:00;95205.81;;;24.73;68.18
46379;BME280;32084;42.254;22.744;2023-09-19T13:18:27;95197.13;;;24.76;65.29
46379;BME280;32084;42.254;22.744;2023-09-19T13:21:09;95204.00;;;24.79;67.17
46379;BME280;32084;42.254;22.744;2023-09-19T13:23:51;95197.97;;;24.77;67.98
46379;BME280;32084;42.254;22.744;2023-09-19T13:26:17;95197.19;;;24.81;69.80
46379;BME280;32084;42.254;22.744;2023-09-19T13:28:44;95192.06;;;24.85;69.10
46379;BME280;32084;42.254;22.744;2023-09-19T13:31:10;95191.38;;;24.94;66.69
46379;BME280;32084;42.254;22.744;2023-09-19T13:33:43;95190.06;;;24.97;67.26
46379;BME280;32084;42.254;22.744;2023-09-19T13:36:11;95194.13;;;24.94;67.09